アテネ の空港の天気 - METARとTAF

アテネ国際空港 ( LGAV / ATH ) - ギリシャ アテネ
飛行場実況気象(Metar)
観測時間04/25 09:20 EEST (04/25 06:20 UTC)
風向・風速不定 1m/s
視程10km以上
天気現象
なし
気温22℃
湿度38%
気圧1016hPa
METARLGAV 250620Z VRB01KT CAVOK 22/07 Q1016 NOSIG
過去の天気等 Google飛行場航空写真 Wunderground天気予報

過去48時間のMETAR

飛行場予報(TAF)
発表時間: 4/25 08:00 EEST (4/25 05:00 UTC)
予報対象時間: 25日9時 EEST ~ 26日9時 EEST
風向・風速不定 2m/s
視程10km以上
少しの雲 雲底高度 610m
25日10時 EEST ~ 25日12時 EEST に徐々に
風向・風速東南東 5m/s
25日19時 EEST ~ 25日21時 EEST に徐々に
風向・風速不定 2m/s
TAF LGAV 250500Z 2506/2606 VRB03KT 9999 FEW020
BECMG 2507/2509 12010KT
BECMG 2516/2518 VRB03KT